createdAt,value
2022-10-04T00:02:34.295Z,19.10
2022-10-04T00:05:30.230Z,19.10
2022-10-04T00:08:31.025Z,19.00
2022-10-04T00:11:24.801Z,19.00
2022-10-04T00:14:21.140Z,19.00
2022-10-04T00:17:14.522Z,19.00
2022-10-04T00:20:04.465Z,19.00
2022-10-04T00:23:28.842Z,19.00
2022-10-04T00:26:56.079Z,19.00
2022-10-04T00:29:45.177Z,19.00
2022-10-04T00:32:48.585Z,19.10
2022-10-04T00:35:52.492Z,18.90
2022-10-04T00:38:41.723Z,18.90
2022-10-04T00:41:37.781Z,18.80
2022-10-04T00:44:32.371Z,18.80
2022-10-04T00:47:32.049Z,18.80
2022-10-04T00:50:27.973Z,18.70
2022-10-04T00:53:27.305Z,18.70
2022-10-04T00:56:21.880Z,18.70
2022-10-04T00:59:28.724Z,18.80
2022-10-04T01:02:21.926Z,18.80
2022-10-04T01:05:16.434Z,18.80
2022-10-04T01:08:12.099Z,18.80
2022-10-04T01:11:04.940Z,18.80
2022-10-04T01:13:59.674Z,18.70
2022-10-04T01:16:49.836Z,18.70
2022-10-04T01:19:41.453Z,18.60
2022-10-04T01:22:44.766Z,18.70
2022-10-04T01:25:48.744Z,18.70
2022-10-04T01:28:38.722Z,18.70
2022-10-04T01:31:27.956Z,18.70
2022-10-04T01:34:19.663Z,18.70
2022-10-04T01:37:09.049Z,18.60
2022-10-04T01:39:59.323Z,18.60
2022-10-04T01:42:52.701Z,18.60
2022-10-04T01:45:45.491Z,18.60
2022-10-04T01:48:38.230Z,18.60
2022-10-04T01:51:31.037Z,18.60
2022-10-04T01:54:24.868Z,18.60
2022-10-04T01:57:19.479Z,18.50
2022-10-04T02:00:12.368Z,18.50
2022-10-04T02:03:05.134Z,18.50
2022-10-04T02:06:00.022Z,18.40
2022-10-04T02:08:51.592Z,18.40
2022-10-04T02:11:42.132Z,18.40
2022-10-04T02:14:34.509Z,18.40
2022-10-04T02:17:28.606Z,18.40
2022-10-04T02:20:21.626Z,18.40
2022-10-04T02:23:11.128Z,18.40
2022-10-04T02:28:50.678Z,18.30
2022-10-04T02:31:59.497Z,18.20
2022-10-04T02:34:49.647Z,18.10
2022-10-04T02:37:40.407Z,18.10
2022-10-04T02:40:32.463Z,18.10
2022-10-04T02:43:25.014Z,18.10
2022-10-04T02:46:19.621Z,18.10
2022-10-04T02:49:19.118Z,18.00
2022-10-04T02:52:11.796Z,18.00
2022-10-04T02:55:07.165Z,17.90
2022-10-04T02:57:56.033Z,18.00
2022-10-04T03:00:51.376Z,18.00
2022-10-04T03:03:41.992Z,18.00
2022-10-04T03:06:33.964Z,18.00
2022-10-04T03:09:28.941Z,18.00
2022-10-04T03:12:19.035Z,18.00
2022-10-04T03:15:10.490Z,17.90
2022-10-04T03:18:01.200Z,17.90
2022-10-04T03:20:50.023Z,17.90
2022-10-04T03:23:41.321Z,17.90
2022-10-04T03:26:33.866Z,17.90
2022-10-04T03:29:26.050Z,17.90
2022-10-04T03:32:17.327Z,17.90
2022-10-04T03:35:10.060Z,18.00
2022-10-04T03:38:03.257Z,18.00
2022-10-04T03:40:57.645Z,18.00
2022-10-04T03:43:49.752Z,18.10
2022-10-04T03:46:39.507Z,18.10
2022-10-04T03:49:34.790Z,18.10
2022-10-04T03:52:26.323Z,18.10
2022-10-04T03:55:17.118Z,18.10
2022-10-04T03:58:08.765Z,18.10
2022-10-04T04:01:07.871Z,18.10
2022-10-04T04:04:02.417Z,18.10
2022-10-04T04:07:03.943Z,18.10
2022-10-04T04:09:57.061Z,18.10
2022-10-04T04:12:48.450Z,18.10
2022-10-04T04:15:42.664Z,18.00
2022-10-04T04:18:34.434Z,18.00
2022-10-04T04:21:25.011Z,18.10
2022-10-04T04:24:24.090Z,18.10
2022-10-04T04:27:14.523Z,18.10
2022-10-04T04:30:06.174Z,18.10
2022-10-04T04:32:58.889Z,18.10
2022-10-04T04:35:48.218Z,18.10
2022-10-04T04:38:57.139Z,18.10
2022-10-04T04:41:50.341Z,18.00
2022-10-04T04:44:40.375Z,17.90
2022-10-04T04:47:33.175Z,17.80
2022-10-04T07:02:23.017Z,18.20
2022-10-04T07:05:30.744Z,18.00
2022-10-04T07:08:33.184Z,18.10
2022-10-04T07:11:27.263Z,18.10
2022-10-04T07:14:21.872Z,18.20
2022-10-04T07:17:15.176Z,18.40
2022-10-04T07:23:00.016Z,18.70
2022-10-04T07:25:53.973Z,18.90
2022-10-04T07:29:03.966Z,19.00
2022-10-04T07:32:09.096Z,19.10
2022-10-04T07:35:04.259Z,19.20
2022-10-04T07:38:01.541Z,19.30
2022-10-04T07:43:56.233Z,19.50
2022-10-04T07:46:50.593Z,19.70
2022-10-04T07:49:42.383Z,19.70
2022-10-04T07:52:53.006Z,19.50
2022-10-04T07:55:52.859Z,19.40
2022-10-04T07:58:53.692Z,19.40
2022-10-04T08:01:49.939Z,19.50
2022-10-04T08:04:47.391Z,19.40
2022-10-04T08:07:49.832Z,19.40
2022-10-04T08:10:48.412Z,19.40
2022-10-04T08:13:46.557Z,19.40
2022-10-04T08:16:38.388Z,19.40
2022-10-04T08:19:42.205Z,19.40
2022-10-04T08:22:51.441Z,19.40
2022-10-04T08:25:48.873Z,19.40
2022-10-04T08:29:00.319Z,19.40
2022-10-04T08:32:04.281Z,19.40
2022-10-04T08:35:29.819Z,19.40
2022-10-04T08:38:43.400Z,19.40
2022-10-04T08:42:14.885Z,19.40
2022-10-04T08:45:39.114Z,19.40
2022-10-04T08:49:05.153Z,19.30
2022-10-04T08:52:23.015Z,19.30
2022-10-04T08:55:55.747Z,19.20
2022-10-04T08:59:16.912Z,19.20
2022-10-04T09:02:33.194Z,19.10
2022-10-04T09:05:47.652Z,19.20
2022-10-04T09:09:35.214Z,19.20
2022-10-04T09:12:56.664Z,19.20
2022-10-04T09:15:53.450Z,19.20
2022-10-04T09:18:54.620Z,19.30
2022-10-04T09:22:01.884Z,19.30
2022-10-04T09:25:24.102Z,19.40
2022-10-04T09:28:21.347Z,19.50
2022-10-04T09:31:31.722Z,19.50
2022-10-04T09:34:52.053Z,19.60
2022-10-04T09:37:51.708Z,19.60
2022-10-04T09:41:13.125Z,19.70
2022-10-04T09:44:27.329Z,19.70
2022-10-04T09:47:41.394Z,19.80
2022-10-04T09:51:01.449Z,19.80
2022-10-04T10:00:11.322Z,20.00
2022-10-04T10:03:33.489Z,20.10
2022-10-04T10:06:47.575Z,20.10
2022-10-04T10:10:03.324Z,20.20
2022-10-04T10:13:33.049Z,20.20
2022-10-04T10:16:51.507Z,20.20
2022-10-04T10:20:16.961Z,20.30
2022-10-04T10:23:44.383Z,20.30
2022-10-04T10:26:52.903Z,20.40
2022-10-04T10:30:15.571Z,20.30
2022-10-04T10:36:47.626Z,20.90
2022-10-04T10:40:04.583Z,21.20
2022-10-04T10:43:05.169Z,21.40
2022-10-04T10:46:19.411Z,21.60
2022-10-04T10:49:24.878Z,21.80
2022-10-04T10:52:51.897Z,22.00
2022-10-04T10:56:20.747Z,22.00
2022-10-04T10:59:38.580Z,21.70
2022-10-04T11:02:51.469Z,21.60
2022-10-04T11:06:10.271Z,21.60
2022-10-04T11:09:29.705Z,21.70
2022-10-04T11:12:53.243Z,21.80
2022-10-04T11:15:51.999Z,22.00
2022-10-04T11:19:19.646Z,22.20
2022-10-04T11:22:49.648Z,22.60
2022-10-04T11:26:06.394Z,23.00
2022-10-04T11:29:10.640Z,23.30
2022-10-04T11:32:31.913Z,23.40
2022-10-04T11:36:15.177Z,23.60
2022-10-04T11:39:44.401Z,23.70
2022-10-04T11:42:53.760Z,23.90
2022-10-04T11:46:16.394Z,23.90
2022-10-04T11:49:23.022Z,23.80
2022-10-04T11:52:44.257Z,23.90
2022-10-04T11:56:06.781Z,24.10
2022-10-04T11:59:09.437Z,24.20
2022-10-04T12:02:39.780Z,24.10
2022-10-04T12:06:04.513Z,23.90
2022-10-04T12:09:06.008Z,24.00
2022-10-04T12:12:39.543Z,24.20
2022-10-04T12:15:45.586Z,24.50
2022-10-04T12:19:13.230Z,24.90
2022-10-04T12:22:27.927Z,25.10
2022-10-04T12:25:48.304Z,25.30
2022-10-04T12:29:11.206Z,25.50
2022-10-04T12:32:06.624Z,25.50
2022-10-04T12:35:06.720Z,25.30
2022-10-04T12:38:19.894Z,25.40
2022-10-04T12:41:17.947Z,25.50
2022-10-04T12:44:24.193Z,25.60
2022-10-04T12:48:10.293Z,25.50
2022-10-04T12:51:07.788Z,25.80
2022-10-04T12:54:11.924Z,25.70
2022-10-04T13:00:05.281Z,25.40
2022-10-04T13:03:19.326Z,25.20
2022-10-04T13:06:18.532Z,25.20
2022-10-04T13:09:17.094Z,25.00
2022-10-04T13:12:22.946Z,24.90
2022-10-04T13:15:25.670Z,24.80
2022-10-04T13:18:23.113Z,24.70
2022-10-04T13:21:17.391Z,24.70
2022-10-04T13:24:16.407Z,24.70
2022-10-04T13:27:09.363Z,24.70
2022-10-04T13:30:06.407Z,24.70
2022-10-04T13:33:04.150Z,24.70
2022-10-04T13:36:01.164Z,24.70
2022-10-04T13:39:32.122Z,24.70
2022-10-04T13:42:38.762Z,24.60
2022-10-04T13:45:37.363Z,24.50
2022-10-04T13:48:38.362Z,24.40
2022-10-04T13:52:13.613Z,24.30
2022-10-04T13:55:42.180Z,24.20
2022-10-04T13:58:42.331Z,24.50
2022-10-04T14:02:10.259Z,24.50
2022-10-04T14:05:38.317Z,24.60
2022-10-04T14:09:13.259Z,24.60
2022-10-04T14:15:49.157Z,24.40
2022-10-04T14:19:17.417Z,24.20
2022-10-04T14:22:37.915Z,24.00
2022-10-04T14:26:08.001Z,24.00
2022-10-04T14:29:21.905Z,24.00
2022-10-04T14:32:40.871Z,24.00
2022-10-04T14:35:34.728Z,23.90
2022-10-04T14:38:54.392Z,23.90
2022-10-04T14:42:17.490Z,23.80
2022-10-04T14:45:29.633Z,23.80
2022-10-04T14:48:39.226Z,23.70
2022-10-04T14:52:02.472Z,23.70
2022-10-04T14:54:55.275Z,23.70
2022-10-04T14:58:00.389Z,23.80
2022-10-04T15:01:09.556Z,23.80
2022-10-04T15:04:25.883Z,23.70
2022-10-04T15:07:20.530Z,23.60
2022-10-04T15:10:19.080Z,23.60
2022-10-04T15:13:19.188Z,23.50
2022-10-04T15:16:18.033Z,23.40
2022-10-04T15:19:23.954Z,23.40
2022-10-04T15:22:22.299Z,23.40
2022-10-04T15:25:40.373Z,23.40
2022-10-04T15:28:47.603Z,23.30
2022-10-04T15:31:42.545Z,23.30
2022-10-04T15:34:42.526Z,23.20
2022-10-04T15:37:44.349Z,23.20
2022-10-04T15:40:41.425Z,23.10
2022-10-04T15:43:35.445Z,23.00
2022-10-04T15:46:40.040Z,23.00
2022-10-04T15:52:48.899Z,22.80
2022-10-04T15:56:20.746Z,22.80
2022-10-04T15:59:31.644Z,22.60
2022-10-04T16:02:46.995Z,22.60
2022-10-04T16:05:41.577Z,22.50
2022-10-04T16:08:52.942Z,22.40
2022-10-04T16:12:20.065Z,22.30
2022-10-04T16:15:20.052Z,22.30
2022-10-04T16:18:33.455Z,22.30
2022-10-04T16:21:32.543Z,22.30
2022-10-04T16:24:49.112Z,22.20
2022-10-04T16:27:47.721Z,22.20
2022-10-04T16:30:41.058Z,22.20
2022-10-04T16:33:38.334Z,22.10
2022-10-04T16:36:44.667Z,22.10
2022-10-04T16:39:54.779Z,22.00
2022-10-04T16:42:57.806Z,22.00
2022-10-04T16:46:06.781Z,22.00
2022-10-04T16:48:58.863Z,21.90
2022-10-04T16:52:16.694Z,21.90
2022-10-04T16:58:44.196Z,21.90
2022-10-04T17:02:06.125Z,21.80
2022-10-04T17:05:08.308Z,21.70
2022-10-04T17:08:21.010Z,21.60
2022-10-04T17:11:35.952Z,21.60
2022-10-04T17:14:51.508Z,21.50
2022-10-04T17:17:47.128Z,21.50
2022-10-04T17:20:48.652Z,21.40
2022-10-04T17:24:11.512Z,21.40
2022-10-04T17:27:16.367Z,21.30
2022-10-04T17:30:16.509Z,21.30
2022-10-04T17:33:22.765Z,21.30
2022-10-04T17:36:44.794Z,21.30
2022-10-04T17:39:44.892Z,21.30
2022-10-04T17:42:43.094Z,21.30
2022-10-04T17:46:00.275Z,21.30
2022-10-04T17:49:15.941Z,21.20
2022-10-04T17:52:29.896Z,21.20
2022-10-04T17:55:23.134Z,21.20
2022-10-04T17:58:16.859Z,21.20
2022-10-04T18:01:14.277Z,21.20
2022-10-04T18:04:11.338Z,21.20
2022-10-04T18:07:10.663Z,21.20
2022-10-04T18:10:04.239Z,21.20
2022-10-04T18:13:00.227Z,21.20
2022-10-04T18:15:54.909Z,21.10
2022-10-04T18:18:45.961Z,21.10
2022-10-04T18:24:30.409Z,21.10
2022-10-04T18:27:24.214Z,21.10
2022-10-04T18:30:16.966Z,21.10
2022-10-04T18:33:16.848Z,21.10
2022-10-04T18:36:15.304Z,21.10
2022-10-04T18:39:21.581Z,21.10
2022-10-04T18:42:20.719Z,21.10
2022-10-04T18:45:21.756Z,21.10
2022-10-04T18:48:18.559Z,21.10
2022-10-04T19:06:16.797Z,21.00
2022-10-04T19:09:13.011Z,21.00
2022-10-04T19:12:07.086Z,21.00
2022-10-04T19:15:05.786Z,20.90
2022-10-04T19:18:03.305Z,20.80
2022-10-04T19:20:59.467Z,20.80
2022-10-04T19:26:48.063Z,20.70
2022-10-04T19:29:54.475Z,20.60
2022-10-04T19:33:02.324Z,20.60
2022-10-04T19:36:25.053Z,20.60
2022-10-04T19:39:36.546Z,20.60
2022-10-04T19:42:33.698Z,20.60
2022-10-04T19:45:36.044Z,20.60
2022-10-04T19:48:28.394Z,20.50
2022-10-04T19:51:24.089Z,20.50
2022-10-04T19:54:16.111Z,20.40
2022-10-04T19:57:12.609Z,20.40
2022-10-04T20:00:03.715Z,20.40
2022-10-04T20:02:53.272Z,20.40
2022-10-04T20:05:47.417Z,20.50
2022-10-04T20:09:02.612Z,20.50
2022-10-04T20:11:54.140Z,20.40
2022-10-04T20:14:47.210Z,20.40
2022-10-04T20:17:36.200Z,20.50
2022-10-04T20:20:59.146Z,20.40
2022-10-04T20:23:56.926Z,20.40
2022-10-04T20:26:56.355Z,20.40
2022-10-04T20:30:08.475Z,20.40
2022-10-04T20:32:59.807Z,20.40
2022-10-04T20:36:01.558Z,20.40
2022-10-04T20:38:53.419Z,20.30
2022-10-04T20:42:29.769Z,20.30
2022-10-04T20:45:24.352Z,20.20
2022-10-04T20:48:19.618Z,20.20
2022-10-04T20:51:11.286Z,20.20
2022-10-04T20:54:01.771Z,20.20
2022-10-04T20:56:55.797Z,20.20
2022-10-04T20:59:47.113Z,20.20
2022-10-04T21:02:37.290Z,20.20
2022-10-04T21:05:26.796Z,20.20
2022-10-04T21:08:21.388Z,20.10
2022-10-04T21:11:20.490Z,20.10
2022-10-04T21:14:24.500Z,20.10
2022-10-04T21:17:39.355Z,20.00
2022-10-04T21:20:46.096Z,20.00
2022-10-04T21:23:36.844Z,20.00
2022-10-04T21:26:26.511Z,19.90
2022-10-04T21:29:15.770Z,19.90
2022-10-04T21:32:04.871Z,19.90
2022-10-04T21:34:55.626Z,19.80
2022-10-04T21:37:44.497Z,19.80
2022-10-04T21:40:33.694Z,19.80
2022-10-04T21:43:22.702Z,19.80
2022-10-04T21:46:15.287Z,19.70
2022-10-04T21:49:07.600Z,19.70
2022-10-04T21:51:58.197Z,19.70
2022-10-04T21:54:47.268Z,19.60
2022-10-04T21:57:36.332Z,19.60
2022-10-04T22:00:25.217Z,19.60
2022-10-04T22:03:14.385Z,19.60
2022-10-04T22:06:03.183Z,19.50
2022-10-04T22:08:54.009Z,19.50
2022-10-04T22:11:43.368Z,19.30
2022-10-04T22:14:32.053Z,19.20
2022-10-04T22:17:21.388Z,19.00
2022-10-04T22:20:10.965Z,19.00
2022-10-04T22:23:00.676Z,19.10
2022-10-04T22:25:51.758Z,19.20
2022-10-04T22:28:45.544Z,19.20
2022-10-04T22:31:34.951Z,19.30
2022-10-04T22:34:23.886Z,19.10
2022-10-04T22:37:13.927Z,19.10
2022-10-04T22:40:03.222Z,19.10
2022-10-04T22:42:56.031Z,19.20
2022-10-04T22:45:45.453Z,19.20
2022-10-04T22:48:34.523Z,19.10
2022-10-04T22:51:23.934Z,19.20
2022-10-04T22:54:13.908Z,19.30
2022-10-04T22:57:03.784Z,19.30
2022-10-04T22:59:54.526Z,19.30
2022-10-04T23:02:44.113Z,19.30
2022-10-04T23:05:33.220Z,19.30
2022-10-04T23:08:22.661Z,19.30
2022-10-04T23:11:12.620Z,19.30
2022-10-04T23:14:02.583Z,19.30
2022-10-04T23:16:53.598Z,19.30
2022-10-04T23:19:42.703Z,19.30
2022-10-04T23:22:32.399Z,19.40
2022-10-04T23:25:25.534Z,19.40
2022-10-04T23:28:15.937Z,19.40
2022-10-04T23:31:15.310Z,19.50
2022-10-04T23:34:17.949Z,19.50
2022-10-04T23:37:17.444Z,19.50
2022-10-04T23:40:11.315Z,19.50
2022-10-04T23:43:01.988Z,19.60
2022-10-04T23:45:51.826Z,19.50
2022-10-04T23:48:41.297Z,19.50
2022-10-04T23:51:31.745Z,19.50
2022-10-04T23:54:22.120Z,19.50
2022-10-04T23:57:12.670Z,19.50
